Terminal Aerodrome Forecast
Issued by NWS

Home | Current Version | Previous Version | Text Only | Print | Product List | Glossary On
Versions: 1 2 3 4 5 6 7 8 9 10 11 12 13 14
032
FTAK31 PAJN 240536
TAFAWG
TAF
PAWG 240536Z 2406/2506 VRB05KT P6SM FEW040 SCT070
     FM241200 11004KT P6SM FEW070
     FM241800 33006KT P6SM FEW070
     FM250300 06005KT 5SM BR FEW070
      AMD LTD TO CLD VIS AND WIND 2406/2415=

USA.gov is the U.S. government's official web portal to all federal, state and local government web resources and services.